Time;durP1;ratioP1;P1;durP2;ratioP2;P2;SDS_P1;SDS_P2;PMS_P1;PMS_P2;Temp;Humidity;BMP_temperature;BMP_pressure;BME280_temperature;BME280_humidity;BME280_pressure;Samples;Min_cycle;Max_cycle;Signal;HPM_P1;HPM_P2
2021/01/08 00:02:01;;;;;;;1.20;1.00;;;2.70;98.00;;;;;;5071889;28;20483;-68
2021/01/08 00:04:29;;;;;;;1.30;1.10;;;2.70;98.00;;;;;;5069952;28;20461;-69
2021/01/08 00:06:56;;;;;;;1.10;0.97;;;2.50;98.00;;;;;;5071957;28;20468;-69
2021/01/08 00:09:23;;;;;;;2.60;1.80;;;2.50;98.00;;;;;;5069979;28;20465;-67
2021/01/08 00:11:56;;;;;;;1.67;1.50;;;2.50;98.00;;;;;;5071564;28;20466;-67
2021/01/08 00:14:22;;;;;;;1.17;1.07;;;2.50;98.00;;;;;;5069710;28;20879;-67
2021/01/08 00:16:49;;;;;;;2.73;1.20;;;2.50;98.00;;;;;;5071653;28;20494;-67
2021/01/08 00:19:15;;;;;;;2.40;1.87;;;2.50;98.00;;;;;;5069493;28;20538;-69
2021/01/08 00:21:44;;;;;;;3.83;1.83;;;2.50;98.00;;;;;;5071611;28;20485;-68
2021/01/08 00:24:11;;;;;;;1.10;1.00;;;2.60;98.00;;;;;;5069508;28;20457;-68
2021/01/08 00:26:38;;;;;;;1.30;1.10;;;2.60;98.00;;;;;;5070430;28;20993;-68
2021/01/08 00:29:05;;;;;;;2.10;2.00;;;2.50;98.00;;;;;;5069574;28;20469;-68
2021/01/08 00:31:39;;;;;;;1.10;1.00;;;2.40;98.00;;;;;;5071548;28;21106;-68
2021/01/08 00:34:06;;;;;;;2.23;2.03;;;2.40;98.00;;;;;;5069499;28;20466;-67
2021/01/08 00:36:34;;;;;;;1.57;1.57;;;2.40;98.00;;;;;;5071417;28;20463;-68
2021/01/08 00:39:03;;;;;;;1.40;1.30;;;2.20;98.00;;;;;;5069868;28;20457;-68
2021/01/08 00:41:31;;;;;;;1.10;1.00;;;2.20;98.00;;;;;;5071213;28;20492;-68
2021/01/08 00:43:58;;;;;;;1.10;0.90;;;2.20;98.00;;;;;;5071660;28;20810;-67
2021/01/08 00:46:35;;;;;;;1.60;1.20;;;2.20;98.00;;;;;;5069155;28;20460;-69
2021/01/08 00:49:03;;;;;;;1.10;1.00;;;2.20;98.00;;;;;;5069815;28;21042;-68
2021/01/08 00:51:30;;;;;;;1.97;1.50;;;2.20;98.00;;;;;;5070947;28;20463;-67
2021/01/08 00:53:58;;;;;;;1.40;1.20;;;2.10;98.00;;;;;;5070971;28;20464;-68
2021/01/08 00:56:25;;;;;;;1.40;1.10;;;2.10;98.00;;;;;;5069193;28;20503;-68
2021/01/08 00:58:52;;;;;;;1.20;1.10;;;2.10;98.00;;;;;;5071566;28;20467;-67
2021/01/08 01:01:19;;;;;;;1.10;0.93;;;2.20;98.00;;;;;;5068897;28;20572;-67
2021/01/08 01:03:46;;;;;;;1.40;1.20;;;2.20;98.00;;;;;;5071385;28;20851;-67
2021/01/08 01:06:21;;;;;;;1.33;1.03;;;2.20;98.00;;;;;;5069222;28;20988;-67
2021/01/08 01:08:47;;;;;;;1.10;1.00;;;2.20;98.00;;;;;;5071171;28;20532;-68
2021/01/08 01:11:18;;;;;;;1.10;1.00;;;2.20;98.00;;;;;;5068648;28;20457;-68
2021/01/08 01:13:47;;;;;;;1.17;1.10;;;2.30;98.00;;;;;;5071186;28;20448;-67
2021/01/08 01:16:14;;;;;;;1.10;1.00;;;2.30;98.00;;;;;;5068761;28;20941;-69
2021/01/08 01:18:42;;;;;;;2.80;1.63;;;2.20;98.00;;;;;;5070976;28;20490;-67
2021/01/08 01:21:10;;;;;;;1.20;1.20;;;2.30;98.00;;;;;;5067868;28;20461;-67
2021/01/08 01:23:36;;;;;;;1.50;1.40;;;2.30;98.00;;;;;;5070352;28;20455;-68
2021/01/08 01:26:06;;;;;;;1.20;1.07;;;2.30;98.00;;;;;;5072086;28;20475;-68
2021/01/08 01:28:33;;;;;;;1.20;1.10;;;2.10;98.00;;;;;;5074822;28;20469;-67
2021/01/08 01:31:02;;;;;;;1.10;0.97;;;2.10;98.00;;;;;;5072196;28;20452;-68
2021/01/08 01:33:28;;;;;;;1.10;1.00;;;2.10;98.00;;;;;;5074584;28;20514;-68
2021/01/08 01:35:59;;;;;;;1.33;1.23;;;2.10;98.00;;;;;;5071966;28;20456;-68
2021/01/08 01:38:25;;;;;;;1.47;1.40;;;2.10;98.00;;;;;;5073349;28;20471;-68
2021/01/08 01:41:01;;;;;;;1.67;1.47;;;2.20;98.00;;;;;;5072224;28;20549;-68
2021/01/08 01:43:28;;;;;;;1.73;1.73;;;2.20;98.00;;;;;;5074296;28;20490;-68
2021/01/08 01:45:56;;;;;;;1.60;1.20;;;2.20;98.00;;;;;;5072216;28;20456;-68
2021/01/08 01:48:24;;;;;;;1.70;1.67;;;2.20;98.00;;;;;;5074131;28;20468;-67
2021/01/08 01:50:52;;;;;;;3.00;1.83;;;2.30;98.00;;;;;;5071217;28;20456;-67
2021/01/08 01:53:19;;;;;;;1.10;1.00;;;2.30;98.00;;;;;;5073598;28;20460;-67
2021/01/08 01:55:51;;;;;;;1.10;0.90;;;2.40;98.00;;;;;;5072696;28;20457;-67
2021/01/08 01:58:19;;;;;;;1.90;1.80;;;2.50;98.00;;;;;;5074766;28;20472;-68
2021/01/08 02:00:45;;;;;;;1.93;1.70;;;2.60;98.00;;;;;;5072474;28;20464;-68
2021/01/08 02:03:18;;;;;;;3.37;1.77;;;2.80;98.00;;;;;;5074350;28;20519;-67
2021/01/08 02:05:49;;;;;;;1.57;1.10;;;2.70;98.00;;;;;;5072107;28;20468;-69
2021/01/08 02:08:21;;;;;;;1.37;1.33;;;2.70;98.00;;;;;;5074075;28;20452;-68
2021/01/08 02:10:58;;;;;;;1.50;1.17;;;2.60;98.00;;;;;;5072047;28;20459;-68
2021/01/08 02:13:34;;;;;;;3.53;1.67;;;2.50;98.00;;;;;;5074226;28;20462;-68
2021/01/08 02:16:01;;;;;;;1.10;0.93;;;2.30;98.00;;;;;;5070801;28;20463;-68
2021/01/08 02:18:29;;;;;;;1.20;1.20;;;2.20;98.00;;;;;;5074136;28;20516;-69
2021/01/08 02:21:03;;;;;;;1.27;1.23;;;2.20;98.00;;;;;;5071725;28;20462;-69
2021/01/08 02:23:39;;;;;;;2.03;1.30;;;2.10;98.00;;;;;;5072628;28;20576;-68
2021/01/08 02:26:14;;;;;;;3.10;2.33;;;1.90;98.00;;;;;;5071690;28;20459;-69
2021/01/08 02:28:41;;;;;;;1.90;1.50;;;1.70;98.00;;;;;;5073821;28;20930;-68
2021/01/08 02:31:08;;;;;;;1.30;1.30;;;1.70;98.00;;;;;;5071720;28;20494;-68
2021/01/08 02:33:35;;;;;;;1.10;1.00;;;1.60;98.00;;;;;;5073474;28;20935;-68
2021/01/08 02:36:04;;;;;;;1.20;1.00;;;1.60;98.00;;;;;;5071175;28;20456;-69
2021/01/08 02:38:31;;;;;;;1.10;1.10;;;1.60;98.00;;;;;;5073286;28;20465;-67
2021/01/08 02:40:59;;;;;;;3.00;1.37;;;1.50;98.00;;;;;;5071366;28;20458;-69
2021/01/08 02:43:29;;;;;;;1.50;1.10;;;1.40;98.00;;;;;;5073511;28;20455;-67
2021/01/08 02:45:59;;;;;;;1.20;1.00;;;1.40;98.00;;;;;;5071422;28;20468;-68
2021/01/08 02:48:27;;;;;;;1.93;1.67;;;1.50;98.00;;;;;;5073326;28;21039;-68
2021/01/08 02:50:55;;;;;;;1.10;1.10;;;1.70;98.00;;;;;;5071404;28;20984;-68
2021/01/08 02:53:24;;;;;;;1.20;1.17;;;1.60;98.00;;;;;;5073245;28;20456;-67
2021/01/08 02:55:57;;;;;;;2.17;1.30;;;1.60;98.00;;;;;;5070057;28;20464;-68
2021/01/08 02:58:26;;;;;;;2.83;1.53;;;1.60;98.00;;;;;;5071215;28;20573;-68
2021/01/08 03:00:54;;;;;;;1.20;1.17;;;1.80;98.00;;;;;;5070842;28;20462;-68
2021/01/08 03:03:22;;;;;;;1.63;1.30;;;1.80;98.00;;;;;;5072794;28;20487;-67
2021/01/08 03:05:50;;;;;;;2.80;1.73;;;2.00;98.00;;;;;;5070877;28;20460;-67
2021/01/08 03:08:17;;;;;;;5.17;1.67;;;2.00;98.00;;;;;;5073062;28;20468;-67
2021/01/08 03:10:44;;;;;;;1.70;1.33;;;2.10;98.00;;;;;;5071019;28;20459;-68
2021/01/08 03:13:11;;;;;;;1.20;1.10;;;2.10;98.00;;;;;;5072392;28;20836;-68
2021/01/08 03:15:38;;;;;;;1.10;1.00;;;2.00;98.00;;;;;;5070935;28;20456;-68
2021/01/08 03:18:05;;;;;;;1.43;1.40;;;2.10;98.00;;;;;;5072877;28;20460;-68
2021/01/08 03:20:33;;;;;;;1.20;0.90;;;2.00;98.00;;;;;;5071040;28;20455;-67
2021/01/08 03:23:03;;;;;;;4.33;2.50;;;1.90;98.00;;;;;;5071604;28;20548;-68
2021/01/08 03:25:29;;;;;;;1.33;1.10;;;2.00;98.00;;;;;;5070851;28;20460;-68
2021/01/08 03:27:56;;;;;;;1.90;1.50;;;1.90;98.00;;;;;;5072712;28;20458;-67
2021/01/08 03:30:23;;;;;;;1.10;1.00;;;1.90;98.00;;;;;;5070574;28;20468;-67
2021/01/08 03:32:51;;;;;;;1.20;1.00;;;1.80;98.00;;;;;;5072733;28;20456;-67
2021/01/08 03:35:19;;;;;;;1.20;1.10;;;1.70;98.00;;;;;;5070499;28;20460;-68
2021/01/08 03:37:45;;;;;;;1.10;0.90;;;1.70;98.00;;;;;;5071412;28;20964;-68
2021/01/08 03:40:12;;;;;;;1.20;1.10;;;1.80;98.00;;;;;;5070384;28;20473;-68
2021/01/08 03:42:39;;;;;;;1.17;1.13;;;1.90;98.00;;;;;;5072481;28;20487;-68
2021/01/08 03:45:07;;;;;;;2.63;1.70;;;1.90;98.00;;;;;;5070307;28;20475;-69
2021/01/08 03:47:33;;;;;;;1.20;1.13;;;1.90;98.00;;;;;;5071765;28;20887;-68
2021/01/08 03:50:01;;;;;;;1.10;0.90;;;1.90;98.00;;;;;;5070164;28;20468;-68
2021/01/08 03:52:28;;;;;;;1.80;1.73;;;1.90;98.00;;;;;;5072210;28;20807;-69
2021/01/08 03:54:55;;;;;;;1.13;1.10;;;1.90;98.00;;;;;;5070024;28;20456;-68
2021/01/08 03:57:21;;;;;;;1.10;1.10;;;1.90;98.00;;;;;;5072167;28;20456;-67
2021/01/08 03:59:48;;;;;;;1.83;1.30;;;2.00;98.00;;;;;;5068795;28;20524;-68
2021/01/08 04:02:14;;;;;;;1.60;1.20;;;1.90;98.00;;;;;;5071898;28;20490;-69
2021/01/08 04:04:41;;;;;;;1.10;1.00;;;1.90;98.00;;;;;;5070029;28;21084;-67
2021/01/08 04:07:09;;;;;;;1.40;1.40;;;2.00;98.00;;;;;;5071832;28;20455;-68
2021/01/08 04:09:36;;;;;;;1.20;1.17;;;2.00;98.00;;;;;;5069949;28;20954;-67
2021/01/08 04:12:03;;;;;;;2.40;2.00;;;2.00;98.00;;;;;;5071766;28;20463;-67
2021/01/08 04:14:29;;;;;;;1.10;1.00;;;2.00;98.00;;;;;;5069824;28;20464;-67
2021/01/08 04:16:56;;;;;;;3.67;2.20;;;2.10;98.00;;;;;;5071682;28;20463;-67
2021/01/08 04:19:24;;;;;;;1.10;0.90;;;2.10;98.00;;;;;;5071241;28;20468;-66
2021/01/08 04:21:50;;;;;;;1.10;0.97;;;2.20;98.00;;;;;;5071460;28;20575;-67
2021/01/08 04:24:18;;;;;;;1.63;1.60;;;2.20;98.00;;;;;;5071431;28;20456;-67
2021/01/08 04:26:46;;;;;;;1.30;1.27;;;2.10;98.00;;;;;;5069560;28;20486;-68
2021/01/08 04:29:12;;;;;;;1.30;1.10;;;2.10;98.00;;;;;;5071412;28;20962;-67
2021/01/08 04:31:41;;;;;;;1.20;1.10;;;2.10;98.00;;;;;;5069410;28;20984;-67
2021/01/08 04:34:08;;;;;;;1.50;1.30;;;2.10;98.00;;;;;;5071050;28;20459;-67
2021/01/08 04:36:35;;;;;;;1.30;1.13;;;1.90;98.00;;;;;;5069610;28;20513;-67
2021/01/08 04:39:01;;;;;;;1.40;1.10;;;1.90;98.00;;;;;;5071526;28;20468;-67
2021/01/08 04:41:31;;;;;;;1.10;1.00;;;1.80;98.00;;;;;;5069416;28;20466;-67
2021/01/08 04:43:59;;;;;;;2.13;1.97;;;1.90;98.00;;;;;;5071420;28;20471;-67
2021/01/08 04:46:29;;;;;;;1.10;1.00;;;2.10;98.00;;;;;;5069627;28;20494;-67
2021/01/08 04:48:59;;;;;;;1.40;1.20;;;2.10;98.00;;;;;;5071328;28;20933;-67
2021/01/08 04:51:27;;;;;;;1.93;1.87;;;2.10;98.00;;;;;;5069580;28;20460;-68
2021/01/08 04:53:53;;;;;;;1.20;1.00;;;2.10;98.00;;;;;;5071390;28;20466;-68
2021/01/08 04:56:25;;;;;;;1.20;1.10;;;2.10;98.00;;;;;;5069562;28;20878;-67
2021/01/08 04:58:53;;;;;;;1.20;1.10;;;2.20;98.00;;;;;;5074236;28;20468;-67
2021/01/08 05:01:20;;;;;;;1.20;1.00;;;2.10;98.00;;;;;;5073626;28;20521;-67
2021/01/08 05:03:47;;;;;;;1.30;1.13;;;2.10;98.00;;;;;;5075601;28;20459;-67
2021/01/08 05:06:14;;;;;;;1.43;1.33;;;2.00;98.00;;;;;;5073407;28;20470;-67
2021/01/08 05:08:40;;;;;;;1.60;1.30;;;2.10;98.00;;;;;;5074136;28;20463;-67
2021/01/08 05:11:24;;;;;;;1.10;1.00;;;2.10;98.00;;;;;;5073383;28;20452;-67
2021/01/08 05:13:56;;;;;;;1.20;1.03;;;2.20;98.00;;;;;;5075162;28;20478;-68
2021/01/08 05:16:24;;;;;;;1.10;1.00;;;2.30;98.00;;;;;;5073093;28;20514;-68
2021/01/08 05:18:53;;;;;;;1.10;1.10;;;2.30;98.00;;;;;;5075246;28;20500;-67
2021/01/08 05:21:19;;;;;;;1.50;1.20;;;2.30;98.00;;;;;;5073223;28;20931;-67
2021/01/08 05:23:48;;;;;;;2.13;1.57;;;2.30;98.00;;;;;;5075089;28;20475;-67
2021/01/08 05:26:15;;;;;;;1.20;1.10;;;2.20;98.00;;;;;;5072867;28;20463;-66
2021/01/08 05:28:47;;;;;;;1.20;1.17;;;2.10;98.00;;;;;;5074860;28;20455;-67
2021/01/08 05:31:18;;;;;;;1.33;1.30;;;2.10;98.00;;;;;;5072872;28;20463;-66
2021/01/08 05:33:46;;;;;;;7.03;2.70;;;2.10;98.00;;;;;;5074887;28;21165;-67
2021/01/08 05:36:13;;;;;;;1.40;1.10;;;2.10;98.00;;;;;;5072859;28;20470;-67
2021/01/08 05:38:47;;;;;;;1.10;0.90;;;2.00;98.00;;;;;;5074698;28;20455;-68
2021/01/08 05:41:14;;;;;;;1.30;1.20;;;2.00;98.00;;;;;;5072648;28;20971;-67
2021/01/08 05:43:41;;;;;;;1.30;1.20;;;2.10;98.00;;;;;;5056903;28;20890;-67
2021/01/08 05:46:13;;;;;;;1.77;1.63;;;2.10;98.00;;;;;;5072270;28;20466;-67
2021/01/08 05:48:42;;;;;;;1.10;0.90;;;2.10;98.00;;;;;;5074621;28;20460;-67
2021/01/08 05:51:13;;;;;;;1.10;1.07;;;2.10;98.00;;;;;;5070801;28;20949;-67
2021/01/08 05:53:41;;;;;;;1.10;1.00;;;2.10;98.00;;;;;;5074569;28;20539;-69
2021/01/08 05:56:14;;;;;;;1.10;1.00;;;2.10;98.00;;;;;;5072412;28;20475;-68
2021/01/08 05:58:40;;;;;;;1.20;1.13;;;2.20;98.00;;;;;;5074329;28;20950;-68
2021/01/08 06:01:09;;;;;;;1.10;1.00;;;2.20;98.00;;;;;;5071924;28;20456;-67
2021/01/08 06:03:37;;;;;;;2.50;1.50;;;2.20;98.00;;;;;;5073909;28;21071;-67
2021/01/08 06:06:05;;;;;;;2.53;1.97;;;2.20;98.00;;;;;;5072152;28;20463;-68
2021/01/08 06:08:33;;;;;;;1.20;0.90;;;2.20;98.00;;;;;;5074447;28;21099;-67
2021/01/08 06:11:09;;;;;;;1.20;1.20;;;2.20;98.00;;;;;;5071284;28;20459;-68
2021/01/08 06:13:36;;;;;;;1.53;1.50;;;2.20;98.00;;;;;;5074310;28;20456;-67
2021/01/08 06:16:04;;;;;;;1.10;1.00;;;2.20;98.00;;;;;;5071983;28;20950;-67
2021/01/08 06:18:39;;;;;;;1.40;1.20;;;2.30;98.00;;;;;;5073733;28;20466;-68
2021/01/08 06:21:09;;;;;;;1.73;1.20;;;2.30;98.00;;;;;;5071091;28;21065;-68
2021/01/08 06:23:37;;;;;;;1.50;1.23;;;2.20;98.00;;;;;;5073079;28;20993;-68
2021/01/08 06:26:05;;;;;;;1.53;1.43;;;2.20;98.00;;;;;;5071176;28;20467;-68
2021/01/08 06:28:40;;;;;;;1.20;1.00;;;2.20;98.00;;;;;;5073873;28;20456;-68
2021/01/08 06:31:26;;;;;;;1.67;1.20;;;2.20;98.00;;;;;;5071227;28;20585;-68
2021/01/08 06:33:54;;;;;;;1.10;1.00;;;2.30;98.00;;;;;;5073079;28;20787;-68
2021/01/08 06:36:24;;;;;;;1.10;1.00;;;2.30;98.00;;;;;;5071435;28;20517;-67
2021/01/08 06:38:52;;;;;;;1.10;0.90;;;2.30;98.00;;;;;;5073543;28;20466;-69
2021/01/08 06:41:23;;;;;;;1.10;1.00;;;2.30;98.00;;;;;;5071032;28;20463;-68
2021/01/08 06:43:56;;;;;;;1.30;1.20;;;2.30;98.00;;;;;;5073604;28;20829;-67
2021/01/08 06:46:31;;;;;;;1.10;1.00;;;2.20;98.00;;;;;;5071724;28;20460;-68
2021/01/08 06:48:59;;;;;;;1.10;0.90;;;2.10;98.00;;;;;;5071943;28;20464;-68
2021/01/08 06:51:31;;;;;;;1.20;1.00;;;2.20;98.00;;;;;;5070499;28;20455;-68
2021/01/08 06:54:03;;;;;;;1.10;0.90;;;2.20;98.00;;;;;;5073121;28;20799;-67
2021/01/08 06:56:34;;;;;;;1.40;1.30;;;2.10;98.00;;;;;;5070671;28;20471;-68
2021/01/08 06:59:02;;;;;;;1.10;0.90;;;2.10;98.00;;;;;;5073082;28;20467;-67
2021/01/08 07:01:52;;;;;;;1.30;1.30;;;2.00;98.00;;;;;;5070848;28;20510;-67
2021/01/08 07:04:21;;;;;;;1.33;1.30;;;2.10;98.00;;;;;;5073158;28;20537;-67
2021/01/08 07:06:49;;;;;;;1.10;0.97;;;2.10;98.00;;;;;;5068933;28;20463;-67
2021/01/08 07:09:16;;;;;;;1.77;1.60;;;2.00;98.00;;;;;;5073157;28;20459;-69
2021/01/08 07:11:43;;;;;;;1.90;1.30;;;2.00;98.00;;;;;;5070794;28;20466;-67
2021/01/08 07:14:14;;;;;;;1.20;1.00;;;2.00;98.00;;;;;;5071731;28;20463;-67
2021/01/08 07:16:44;;;;;;;1.33;1.20;;;2.00;98.00;;;;;;5070823;28;20467;-67
2021/01/08 07:19:12;;;;;;;1.17;1.00;;;2.00;98.00;;;;;;5072848;28;20887;-67
2021/01/08 07:21:48;;;;;;;1.20;1.20;;;2.10;98.00;;;;;;5069789;28;20463;-67
2021/01/08 07:24:17;;;;;;;1.20;1.00;;;2.00;98.00;;;;;;5072942;28;20465;-66
2021/01/08 07:26:44;;;;;;;1.10;0.90;;;2.00;98.00;;;;;;5070497;28;20938;-67
2021/01/08 07:29:11;;;;;;;1.10;1.00;;;2.00;98.00;;;;;;5072552;28;20459;-66
2021/01/08 07:31:39;;;;;;;1.13;1.00;;;1.90;98.00;;;;;;5070335;28;20455;-68
2021/01/08 07:34:08;;;;;;;1.20;1.20;;;1.90;98.00;;;;;;5072463;28;20459;-68
2021/01/08 07:36:35;;;;;;;1.50;1.50;;;1.90;98.00;;;;;;5070383;28;20499;-68
2021/01/08 07:39:05;;;;;;;1.10;0.97;;;1.90;98.00;;;;;;5072281;28;20452;-67
2021/01/08 07:41:42;;;;;;;1.27;1.27;;;2.00;98.00;;;;;;5070046;28;20456;-66
2021/01/08 07:44:31;;;;;;;1.60;1.53;;;2.10;98.00;;;;;;5072231;28;20454;-67
2021/01/08 07:46:58;;;;;;;1.50;1.00;;;2.00;98.00;;;;;;5069943;28;20459;-67
2021/01/08 07:49:28;;;;;;;1.10;1.00;;;1.90;98.00;;;;;;5071962;28;20462;-68
2021/01/08 07:51:55;;;;;;;1.27;1.10;;;1.90;98.00;;;;;;5070131;28;20459;-67
2021/01/08 07:54:53;;;;;;;1.63;1.20;;;1.90;98.00;;;;;;5072075;28;20877;-66
2021/01/08 07:57:20;;;;;;;1.50;1.50;;;1.90;98.00;;;;;;5071829;28;20550;-66
2021/01/08 07:59:47;;;;;;;1.10;0.90;;;1.80;98.00;;;;;;5070118;28;20476;-67
2021/01/08 08:02:14;;;;;;;1.43;1.33;;;1.90;98.00;;;;;;5072032;28;20935;-67
2021/01/08 08:04:40;;;;;;;1.13;1.00;;;1.90;98.00;;;;;;5072031;28;20475;-67
2021/01/08 08:07:11;;;;;;;1.10;1.00;;;1.80;98.00;;;;;;5069850;28;20467;-68
2021/01/08 08:09:37;;;;;;;1.10;1.00;;;1.80;98.00;;;;;;5071866;28;20464;-67
2021/01/08 08:12:10;;;;;;;1.10;1.00;;;1.90;98.00;;;;;;5069322;28;20465;-67
2021/01/08 08:14:37;;;;;;;1.10;0.97;;;2.00;98.00;;;;;;5071726;28;20462;-67
2021/01/08 08:17:04;;;;;;;1.10;1.00;;;1.90;98.00;;;;;;5070048;28;20472;-67
2021/01/08 08:19:34;;;;;;;1.10;1.00;;;2.10;98.00;;;;;;5072022;28;20933;-67
2021/01/08 08:22:00;;;;;;;1.10;0.90;;;2.10;98.00;;;;;;5069968;28;20486;-66
2021/01/08 08:24:28;;;;;;;1.30;1.20;;;2.10;98.00;;;;;;5072035;28;20478;-67
2021/01/08 08:26:55;;;;;;;1.10;1.10;;;2.10;98.00;;;;;;5069647;28;20451;-67
2021/01/08 08:29:25;;;;;;;1.10;1.00;;;2.10;98.00;;;;;;5071778;28;20514;-67
2021/01/08 08:31:52;;;;;;;1.20;1.10;;;2.20;98.00;;;;;;5069650;28;20875;-66
2021/01/08 08:34:29;;;;;;;1.10;1.00;;;2.20;98.00;;;;;;5071316;28;20452;-66
2021/01/08 08:37:05;;;;;;;1.10;1.00;;;2.20;98.00;;;;;;5069358;28;20455;-67
2021/01/08 08:39:31;;;;;;;1.20;1.00;;;2.20;98.00;;;;;;5071527;28;20455;-66
2021/01/08 08:41:58;;;;;;;1.77;1.30;;;2.20;98.00;;;;;;5069479;28;20491;-66
2021/01/08 08:44:25;;;;;;;1.17;1.07;;;2.20;98.00;;;;;;5071548;28;20468;-67
2021/01/08 08:46:53;;;;;;;1.20;1.13;;;2.30;98.00;;;;;;5069388;28;20464;-67
2021/01/08 08:49:21;;;;;;;1.10;1.10;;;2.20;98.00;;;;;;5071190;28;20525;-67
2021/01/08 08:51:50;;;;;;;1.10;0.93;;;2.30;98.00;;;;;;5069368;28;20473;-69
2021/01/08 08:54:17;;;;;;;1.10;0.90;;;2.40;98.00;;;;;;5070214;28;20513;-67
2021/01/08 08:56:52;;;;;;;1.60;1.30;;;2.50;98.00;;;;;;5069129;28;20456;-65
2021/01/08 08:59:39;;;;;;;1.10;1.00;;;2.70;98.00;;;;;;5069626;28;20536;-65
2021/01/08 09:02:07;;;;;;;1.10;0.90;;;3.00;98.00;;;;;;5068624;28;20823;-67
2021/01/08 09:04:34;;;;;;;1.13;1.00;;;3.30;98.00;;;;;;5070268;28;20452;-67
2021/01/08 09:07:04;;;;;;;1.20;1.00;;;3.30;98.00;;;;;;5068527;28;20980;-66
2021/01/08 09:09:37;;;;;;;1.17;1.07;;;3.00;98.00;;;;;;5070493;28;20954;-66
2021/01/08 09:12:17;;;;;;;1.10;1.00;;;2.90;98.00;;;;;;5068826;28;20456;-66
2021/01/08 09:14:48;;;;;;;2.80;1.50;;;2.90;98.00;;;;;;5070557;28;20482;-65
2021/01/08 09:17:20;;;;;;;1.10;0.90;;;2.80;98.00;;;;;;5067463;28;21056;-65
2021/01/08 09:19:51;;;;;;;1.13;1.10;;;2.70;98.00;;;;;;5070087;28;20533;-65
2021/01/08 09:22:18;;;;;;;1.83;1.30;;;2.60;98.00;;;;;;5068608;28;20484;-66
2021/01/08 09:24:47;;;;;;;1.20;1.07;;;2.40;98.00;;;;;;5070293;28;20474;-65
2021/01/08 09:27:14;;;;;;;1.10;1.00;;;2.20;98.00;;;;;;5068207;28;20463;-65
2021/01/08 09:29:41;;;;;;;1.30;1.20;;;2.30;98.00;;;;;;5070533;28;20455;-67
2021/01/08 09:32:09;;;;;;;1.10;1.00;;;2.40;98.00;;;;;;5068126;28;20558;-66
2021/01/08 09:34:37;;;;;;;1.70;1.37;;;2.40;98.00;;;;;;5070311;28;20467;-67
2021/01/08 09:37:14;;;;;;;1.60;1.43;;;2.30;98.00;;;;;;5068600;28;20467;-66
2021/01/08 09:39:43;;;;;;;1.30;1.10;;;2.20;98.00;;;;;;5070590;28;20897;-66
2021/01/08 09:42:11;;;;;;;1.10;1.00;;;2.20;98.00;;;;;;5068519;28;20579;-65
2021/01/08 09:44:39;;;;;;;1.10;1.00;;;2.20;98.00;;;;;;5070604;28;20490;-68
2021/01/08 09:47:08;;;;;;;1.10;1.00;;;2.10;98.00;;;;;;5072107;28;20988;-66
2021/01/08 09:49:42;;;;;;;1.10;0.90;;;2.10;98.00;;;;;;5073139;28;20483;-65
2021/01/08 09:52:12;;;;;;;2.40;2.03;;;2.00;98.00;;;;;;5072061;28;20928;-66
2021/01/08 09:54:46;;;;;;;1.60;1.37;;;1.90;98.00;;;;;;5073815;28;20472;-67
2021/01/08 09:57:25;;;;;;;1.17;1.13;;;1.90;98.00;;;;;;5071832;28;20489;-65
2021/01/08 09:59:57;;;;;;;1.97;1.67;;;1.80;98.00;;;;;;5076669;28;20541;-66
2021/01/08 10:02:38;;;;;;;1.10;1.00;;;1.80;98.00;;;;;;5073667;28;20498;-67
2021/01/08 10:05:05;;;;;;;1.10;1.00;;;1.80;98.00;;;;;;5070041;28;21307;-66
2021/01/08 10:08:02;;;;;;;1.10;0.90;;;1.90;98.00;;;;;;5073698;28;20447;-65
2021/01/08 10:10:44;;;;;;;1.10;1.00;;;1.90;98.00;;;;;;5070066;28;20467;-66
2021/01/08 10:13:19;;;;;;;1.60;1.50;;;2.00;98.00;;;;;;5073264;28;20462;-67
2021/01/08 10:15:47;;;;;;;1.10;1.00;;;2.00;98.00;;;;;;5071524;28;20462;-67
2021/01/08 10:18:21;;;;;;;1.30;1.20;;;2.00;98.00;;;;;;5073564;28;20460;-66
2021/01/08 10:20:49;;;;;;;1.50;1.40;;;2.00;98.00;;;;;;5071267;28;20455;-67
2021/01/08 10:23:17;;;;;;;2.03;1.10;;;2.00;98.00;;;;;;5072923;28;20487;-66
2021/01/08 10:25:44;;;;;;;1.10;0.90;;;2.00;98.00;;;;;;5071334;28;20476;-66
2021/01/08 10:28:16;;;;;;;1.20;1.10;;;2.00;98.00;;;;;;5073623;28;20467;-67
2021/01/08 10:30:47;;;;;;;1.10;1.00;;;2.00;98.00;;;;;;5071057;28;20467;-65
2021/01/08 10:33:16;;;;;;;1.10;1.00;;;2.00;98.00;;;;;;5071651;28;21197;-66
2021/01/08 10:35:47;;;;;;;1.63;1.53;;;2.00;98.00;;;;;;5071041;28;20468;-66
2021/01/08 10:38:13;;;;;;;1.50;1.30;;;2.00;98.00;;;;;;5072986;28;20463;-64
2021/01/08 10:40:43;;;;;;;2.00;1.63;;;2.00;98.00;;;;;;5070863;28;20471;-64
2021/01/08 10:43:10;;;;;;;1.10;1.00;;;2.10;98.00;;;;;;5054830;28;20572;-66
2021/01/08 10:45:38;;;;;;;1.10;1.00;;;2.10;98.00;;;;;;5070561;28;21115;-68
2021/01/08 10:48:05;;;;;;;1.10;1.00;;;2.10;98.00;;;;;;5072971;28;21259;-67
2021/01/08 10:50:33;;;;;;;1.30;1.20;;;2.20;98.00;;;;;;5070990;28;20451;-65
2021/01/08 10:53:00;;;;;;;1.10;1.00;;;2.10;98.00;;;;;;5072782;28;20460;-65
2021/01/08 10:55:27;;;;;;;1.77;1.20;;;2.10;98.00;;;;;;5070242;28;20455;-66
2021/01/08 10:57:55;;;;;;;1.30;1.10;;;2.10;98.00;;;;;;5072545;28;20847;-64
2021/01/08 11:00:22;;;;;;;2.10;1.83;;;2.10;98.00;;;;;;5070539;28;20463;-64
2021/01/08 11:02:49;;;;;;;1.10;1.00;;;2.20;98.00;;;;;;5072628;28;20499;-66
2021/01/08 11:05:16;;;;;;;1.10;0.90;;;2.20;98.00;;;;;;5070185;28;20466;-67
2021/01/08 11:07:43;;;;;;;1.10;1.00;;;2.10;98.00;;;;;;5073041;28;20463;-65
2021/01/08 11:10:11;;;;;;;1.10;1.00;;;2.20;98.00;;;;;;5070718;28;20467;-68
2021/01/08 11:12:38;;;;;;;1.10;1.00;;;2.10;98.00;;;;;;5073018;28;20543;-66
2021/01/08 11:15:07;;;;;;;1.10;0.90;;;2.20;98.00;;;;;;5071356;28;20485;-65
2021/01/08 11:17:33;;;;;;;1.10;0.90;;;2.30;98.00;;;;;;5072766;28;21169;-67
2021/01/08 11:20:00;;;;;;;1.10;0.90;;;2.50;98.00;;;;;;5072707;28;20463;-66
2021/01/08 11:22:28;;;;;;;1.30;1.30;;;2.70;98.00;;;;;;5070027;28;20483;-67
2021/01/08 11:24:56;;;;;;;1.50;1.50;;;2.80;98.00;;;;;;5071842;28;20463;-66
2021/01/08 11:27:23;;;;;;;1.10;0.90;;;2.90;98.00;;;;;;5070796;28;20460;-67
2021/01/08 11:29:50;;;;;;;1.10;0.90;;;3.00;98.00;;;;;;5072295;28;20467;-67
2021/01/08 11:32:16;;;;;;;5.00;1.73;;;2.90;98.00;;;;;;5069983;28;20464;-66
2021/01/08 11:34:43;;;;;;;1.30;1.30;;;2.70;98.00;;;;;;5070485;28;20463;-66
2021/01/08 11:37:10;;;;;;;1.97;1.63;;;2.70;98.00;;;;;;5068429;28;20468;-67
2021/01/08 11:39:37;;;;;;;1.37;1.10;;;2.80;98.00;;;;;;5072009;28;20491;-67
2021/01/08 11:42:05;;;;;;;1.10;1.00;;;2.70;98.00;;;;;;5069762;28;20506;-67
2021/01/08 11:44:31;;;;;;;1.50;1.40;;;2.70;98.00;;;;;;5071603;28;20459;-68
2021/01/08 11:46:58;;;;;;;1.20;1.10;;;2.90;98.00;;;;;;5069695;28;20456;-67
2021/01/08 11:49:25;;;;;;;1.27;1.13;;;3.00;98.00;;;;;;5071879;28;20467;-66
2021/01/08 11:51:57;;;;;;;1.50;1.40;;;3.10;98.00;;;;;;5069392;28;20468;-66
2021/01/08 11:54:23;;;;;;;1.10;1.00;;;2.90;98.00;;;;;;5071462;28;20500;-66
2021/01/08 11:56:51;;;;;;;1.20;1.10;;;2.90;98.00;;;;;;5068976;28;20543;-67
2021/01/08 11:59:19;;;;;;;2.50;1.33;;;2.90;98.00;;;;;;5071457;28;20524;-66
2021/01/08 12:01:48;;;;;;;1.30;1.20;;;2.80;98.00;;;;;;5069209;28;20487;-67
2021/01/08 12:04:15;;;;;;;1.70;1.67;;;2.80;98.00;;;;;;5070332;28;20520;-67
2021/01/08 12:06:42;;;;;;;1.37;1.33;;;2.80;98.00;;;;;;5069713;28;20459;-67
2021/01/08 12:09:10;;;;;;;1.17;1.10;;;2.90;98.00;;;;;;5070829;28;20560;-64
2021/01/08 12:11:38;;;;;;;1.17;1.07;;;2.80;98.00;;;;;;5068760;28;20463;-66
2021/01/08 12:14:05;;;;;;;1.10;1.00;;;2.90;98.00;;;;;;5071156;28;20495;-65
2021/01/08 12:16:35;;;;;;;1.67;1.27;;;2.70;98.00;;;;;;5069184;28;20456;-65
2021/01/08 12:19:02;;;;;;;1.30;1.20;;;2.80;98.00;;;;;;5071413;28;20467;-65
2021/01/08 12:21:29;;;;;;;1.30;1.20;;;2.90;98.00;;;;;;5067796;28;20490;-66
2021/01/08 12:23:56;;;;;;;1.10;1.00;;;2.90;98.00;;;;;;5070894;28;20549;-66
2021/01/08 12:26:24;;;;;;;1.10;1.00;;;2.70;98.00;;;;;;5068850;28;20451;-66
2021/01/08 12:28:51;;;;;;;1.10;1.00;;;2.70;98.00;;;;;;5071123;28;20482;-67
2021/01/08 12:31:23;;;;;;;1.10;1.00;;;2.70;98.00;;;;;;5068479;28;20459;-65
2021/01/08 12:33:51;;;;;;;4.03;1.47;;;2.70;98.00;;;;;;5070906;28;20835;-66
2021/01/08 12:36:19;;;;;;;1.33;1.27;;;2.60;98.00;;;;;;5068751;28;20468;-67
2021/01/08 12:38:46;;;;;;;1.10;1.00;;;2.70;98.00;;;;;;5071013;28;20452;-65
2021/01/08 12:41:13;;;;;;;2.47;1.40;;;2.60;98.00;;;;;;5068481;28;20514;-69
2021/01/08 12:43:40;;;;;;;1.40;1.10;;;2.50;98.00;;;;;;5070624;28;21021;-69
2021/01/08 12:46:07;;;;;;;1.10;0.93;;;2.40;98.00;;;;;;5068457;28;20460;-68
2021/01/08 12:48:34;;;;;;;1.20;1.20;;;2.40;98.00;;;;;;5070849;28;20459;-67
2021/01/08 12:51:01;;;;;;;1.10;1.00;;;2.30;98.00;;;;;;5068536;28;20495;-67
2021/01/08 12:53:28;;;;;;;1.77;1.37;;;2.20;98.00;;;;;;5070646;28;20912;-68
2021/01/08 12:55:54;;;;;;;1.10;0.90;;;2.20;98.00;;;;;;5068440;28;20460;-66
2021/01/08 12:58:21;;;;;;;1.10;1.00;;;2.20;98.00;;;;;;5069441;28;20472;-68
2021/01/08 13:00:49;;;;;;;1.30;1.30;;;2.10;98.00;;;;;;5067159;28;20464;-67
2021/01/08 13:03:16;;;;;;;1.10;0.90;;;2.30;98.00;;;;;;5070500;28;21162;-67
2021/01/08 13:05:46;;;;;;;1.97;1.17;;;2.30;98.00;;;;;;5068590;28;20460;-67
2021/01/08 13:08:13;;;;;;;4.70;2.50;;;2.40;98.00;;;;;;5071134;28;20455;-69